This is the latest recevied weather packets stored in our database for station/object KK6LZB. If no packets are shown the sender has not sent any weather packets the latest 10 day(s).
| Time | Temp. | Humidity | Pressure | Rain* | Wind** | Luminosity | Snow |
|---|---|---|---|---|---|---|---|
| 1778021593 | 18.89° C | 66% | 1016.7 hPa | 0 mm | - | 425 W/m² | - |
| 1778021288 | 18.33° C | 68% | 1016.8 hPa | 0 mm | - | 519 W/m² | - |
| 1778020986 | 18.89° C | 68% | 1016.5 hPa | 0 mm | - | 509 W/m² | - |
| 1778020683 | 19.44° C | 63% | 1016.7 hPa | 0 mm | - | 520 W/m² | - |
| 1778020380 | 20° C | 64% | 1016.7 hPa | 0 mm | - | 520 W/m² | - |
| 1778020075 | 20° C | 65% | 1016.7 hPa | 0 mm | - | 525 W/m² | - |
| 1778019772 | 20° C | 63% | 1016.7 hPa | 0 mm | - | 542 W/m² | - |
| 1778019469 | 20° C | 63% | 1016.6 hPa | 0 mm | - | 550 W/m² | - |
| 1778019165 | 19.44° C | 64% | 1016.8 hPa | 0 mm | - | 562 W/m² | - |
| 1778018862 | 20° C | 63% | 1016.8 hPa | 0 mm | - | 573 W/m² | - |
| 1778018559 | 20° C | 62% | 1017 hPa | 0 mm | - | 581 W/m² | - |
| 1778018258 | 19.44° C | 64% | 1017 hPa | 0 mm | - | 593 W/m² | - |
| 1778017955 | 18.89° C | 64% | 1016.9 hPa | 0 mm | - | 602 W/m² | - |
| 1778017653 | 18.89° C | 62% | 1016.9 hPa | 0 mm | - | 613 W/m² | - |
| 1778017350 | 20° C | 62% | 1017 hPa | 0 mm | - | 623 W/m² | - |
| 1778017047 | 20° C | 60% | 1017.1 hPa | 0 mm | - | 631 W/m² | - |
| 1778016744 | 20° C | 59% | 1017 hPa | 0 mm | - | 642 W/m² | - |
| 1778016440 | 21.11° C | 56% | 1017 hPa | 0 mm | - | 650 W/m² | - |
| 1778016138 | 20.56° C | 58% | 1017.1 hPa | 0 mm | - | 657 W/m² | - |
| 1778015835 | 20° C | 57% | 1017.1 hPa | 0 mm | - | 665 W/m² | - |
| 1778015532 | 19.44° C | 61% | 1017.2 hPa | 0 mm | - | 673 W/m² | - |
| 1778015228 | 20.56° C | 59% | 1017.4 hPa | 0 mm | - | 679 W/m² | - |
| 1778014925 | 20° C | 58% | 1017.2 hPa | 0 mm | - | 684 W/m² | - |
| 1778014623 | 19.44° C | 59% | 1017.2 hPa | 0 mm | - | 690 W/m² | - |
| 1778014321 | 20° C | 59% | 1017.2 hPa | 0 mm | - | 698 W/m² | - |
* Rain latest hour (hover to see other rain measurements)
** Current wind speed in m/s (hover to see current wind gust speed)